Time;durP1;ratioP1;P1;durP2;ratioP2;P2;SDS_P1;SDS_P2;PMS_P1;PMS_P2;Temp;Humidity;BMP_temperature;BMP_pressure;BME280_temperature;BME280_humidity;BME280_pressure;Samples;Min_cycle;Max_cycle;Signal;HPM_P1;HPM_P2
2022/02/08 00:01:20;;;;;;;10.02;4.25;;;;;;;5.26;98.17;102009.50;4741111;29;414206;-88
2022/02/08 00:03:46;;;;;;;13.95;3.92;;;;;;;5.26;98.27;102013.00;4771680;29;414364;-87
2022/02/08 00:08:52;;;;;;;13.73;3.92;;;;;;;5.29;98.25;101985.34;4837471;29;20507;-87
2022/02/08 00:11:18;;;;;;;16.40;3.97;;;;;;;5.29;98.63;101988.00;4856099;29;20065;-88
2022/02/08 00:13:43;;;;;;;15.23;4.18;;;;;;;5.30;99.16;101997.72;4830004;29;20187;-87
2022/02/08 00:16:08;;;;;;;9.00;3.22;;;;;;;5.28;99.00;101994.28;4843128;29;20073;-88
2022/02/08 00:18:34;;;;;;;13.77;4.60;;;;;;;5.31;99.40;101991.41;4843215;29;430143;-87
2022/02/08 00:21:01;;;;;;;11.32;3.90;;;;;;;5.30;99.47;101981.75;4897824;29;20051;-88
2022/02/08 00:23:26;;;;;;;13.23;4.72;;;;;;;5.32;99.22;101995.78;4874019;29;439965;-87
2022/02/08 00:25:52;;;;;;;13.25;4.82;;;;;;;5.33;99.54;101993.03;4862823;29;430771;-88
2022/02/08 00:28:17;;;;;;;10.13;4.00;;;;;;;5.28;99.40;101984.50;4847700;29;455128;-87
2022/02/08 00:30:43;;;;;;;14.57;3.83;;;;;;;5.31;100.00;101991.41;4864316;29;427838;-87
2022/02/08 00:33:08;;;;;;;19.50;4.20;;;;;;;5.32;100.00;101985.13;4860976;29;518490;-87
2022/02/08 00:35:34;;;;;;;20.67;5.05;;;;;;;5.33;100.00;101986.88;4826118;29;484941;-87
2022/02/08 00:37:59;;;;;;;14.85;5.05;;;;;;;5.34;100.00;101994.72;4867247;29;20085;-88
2022/02/08 00:40:26;;;;;;;17.15;3.67;;;;;;;5.33;100.00;101998.34;4834470;29;44886;-87
2022/02/08 00:42:52;;;;;;;11.95;4.80;;;;;;;5.35;100.00;101990.25;4849591;29;20565;-87
2022/02/08 00:45:45;;;;;;;15.98;4.40;;;;;;;5.33;100.00;102002.84;4826255;29;20042;-89
2022/02/08 00:50:48;;;;;;;11.98;5.28;;;;;;;5.29;100.00;101995.97;4895617;29;20056;-87
2022/02/08 00:53:15;;;;;;;19.25;5.75;;;;;;;5.28;100.00;101988.97;4883314;29;346724;-88
2022/02/08 00:55:41;;;;;;;17.63;5.55;;;;;;;5.28;100.00;101987.16;4891036;29;386936;-87
2022/02/08 00:58:07;;;;;;;16.20;5.60;;;;;;;5.30;100.00;101998.56;4889322;29;388479;-88
2022/02/08 01:00:34;;;;;;;14.68;5.00;;;;;;;5.29;100.00;101990.66;4857044;29;429911;-88
2022/02/08 01:03:00;;;;;;;18.13;7.22;;;;;;;5.31;100.00;101994.09;4879002;29;341060;-89
2022/02/08 01:05:26;;;;;;;19.38;5.43;;;;;;;5.31;100.00;101984.28;4843146;29;20129;-90
2022/02/08 01:07:51;;;;;;;20.27;6.57;;;;;;;5.34;100.00;101981.41;4864855;29;361317;-91
2022/02/08 01:10:19;;;;;;;18.17;5.72;;;;;;;5.34;100.00;101978.75;4840215;29;451598;-87
2022/02/08 01:12:47;;;;;;;20.23;6.95;;;;;;;5.35;100.00;101980.47;4862482;29;20049;-87
2022/02/08 01:15:14;;;;;;;20.87;6.83;;;;;;;5.38;100.00;101976.75;4818963;29;442320;-88
2022/02/08 01:17:40;;;;;;;17.80;6.88;;;;;;;5.41;100.00;101980.06;4851092;29;20045;-88
2022/02/08 01:20:12;;;;;;;17.00;6.43;;;;;;;5.40;100.00;101975.69;4888265;29;20048;-87
2022/02/08 01:22:40;;;;;;;20.10;7.38;;;;;;;5.43;100.00;101987.94;4872183;29;411880;-88
2022/02/08 01:25:09;;;;;;;27.05;8.07;;;;;;;5.43;100.00;101980.81;4885546;29;406294;-87
2022/02/08 01:27:42;;;;;;;18.88;8.60;;;;;;;5.41;100.00;101980.06;4857209;29;410721;-87
2022/02/08 01:30:15;;;;;;;15.70;8.13;;;;;;;5.35;100.00;101982.25;4861873;29;596520;-87
2022/02/08 01:33:12;;;;;;;27.75;9.88;;;;;;;5.30;100.00;101981.75;4862507;29;20566;-88
2022/02/08 01:38:25;;;;;;;25.00;9.65;;;;;;;5.20;100.00;101978.81;4833739;29;415341;-89
2022/02/08 01:41:27;;;;;;;25.02;9.52;;;;;;;5.18;100.00;101978.94;4814531;29;20054;-88
2022/02/08 01:44:11;;;;;;;20.13;9.50;;;;;;;5.14;100.00;101974.75;4798968;29;20050;-88
2022/02/08 01:49:32;;;;;;;23.90;11.03;;;;;;;5.09;100.00;101966.22;4744508;29;1814814;-88
2022/02/08 01:51:59;;;;;;;23.38;10.45;;;;;;;5.10;100.00;101978.56;4778736;29;435875;-88
2022/02/08 01:54:27;;;;;;;30.08;10.00;;;;;;;5.11;100.00;101977.59;4754885;29;487085;-88
2022/02/08 01:58:51;;;;;;;27.20;10.52;;;;;;;5.08;100.00;101969.81;5009894;27;20134;-88
2022/02/08 02:01:16;;;;;;;28.13;12.18;;;;;;;5.09;100.00;101968.91;4939330;28;20050;-87
2022/02/08 02:03:43;;;;;;;32.20;12.88;;;;;;;5.13;100.00;101957.09;4902941;28;20858;-89
2022/02/08 02:06:09;;;;;;;32.80;12.70;;;;;;;5.12;100.00;101963.38;4862929;29;20654;-88
2022/02/08 02:08:36;;;;;;;31.80;10.73;;;;;;;5.13;100.00;101958.91;4846140;29;415471;-87
2022/02/08 02:11:02;;;;;;;32.80;13.38;;;;;;;5.11;100.00;101958.13;4843877;29;418734;-87
2022/02/08 02:13:43;;;;;;;29.83;14.37;;;;;;;5.10;100.00;101951.97;4841808;29;495567;-88
2022/02/08 02:16:10;;;;;;;29.63;12.73;;;;;;;5.09;100.00;101970.66;4749162;29;4006898;-88
2022/02/08 02:18:35;;;;;;;40.80;13.73;;;;;;;5.04;100.00;101960.34;4722125;29;4009535;-88
2022/02/08 02:21:03;;;;;;;34.05;16.42;;;;;;;5.08;100.00;101959.19;4860604;29;439518;-88
2022/02/08 02:23:29;;;;;;;39.47;15.27;;;;;;;5.06;100.00;101957.56;4835345;29;655532;-88
2022/02/08 02:25:55;;;;;;;34.70;14.00;;;;;;;5.03;100.00;101953.31;4840526;29;20048;-87
2022/02/08 02:28:20;;;;;;;41.13;15.25;;;;;;;5.04;100.00;101948.84;4822093;29;473109;-88
2022/02/08 02:30:46;;;;;;;39.15;15.38;;;;;;;5.05;100.00;101946.06;4604324;29;4023796;-88
2022/02/08 02:33:12;;;;;;;38.55;16.25;;;;;;;5.06;100.00;101950.44;4727432;29;4011724;-88
2022/02/08 02:35:37;;;;;;;37.53;17.13;;;;;;;5.06;100.00;101944.28;4837004;29;540231;-88
2022/02/08 02:38:06;;;;;;;46.33;16.63;;;;;;;5.03;100.00;101937.34;4863327;29;415962;-88
2022/02/08 02:40:31;;;;;;;46.63;19.93;;;;;;;5.04;100.00;101947.03;4884137;29;511809;-88
2022/02/08 02:42:58;;;;;;;43.60;17.45;;;;;;;5.03;100.00;101942.66;4898593;28;419820;-89
2022/02/08 02:45:24;;;;;;;37.10;17.00;;;;;;;5.02;100.00;101924.16;4870896;28;540074;-88
2022/02/08 02:47:52;;;;;;;41.47;19.17;;;;;;;5.04;100.00;101947.03;4770178;29;3988454;-88
2022/02/08 02:50:27;;;;;;;39.17;17.95;;;;;;;5.02;100.00;101940.97;4806755;29;2589023;-87
2022/02/08 02:52:53;;;;;;;37.47;15.13;;;;;;;5.01;100.00;101933.94;4896015;29;413524;-88
2022/02/08 02:55:19;;;;;;;43.55;19.55;;;;;;;5.04;100.00;101933.75;4839657;29;29392;-88
2022/02/08 02:57:49;;;;;;;40.85;19.17;;;;;;;5.04;100.00;101940.88;4817649;29;492689;-87
2022/02/08 03:00:28;;;;;;;46.30;21.65;;;;;;;5.06;100.00;101939.78;4819541;29;472253;-88
2022/02/08 03:03:02;;;;;;;45.55;21.38;;;;;;;5.07;100.00;101938.00;4854878;29;473321;-88
2022/02/08 03:05:54;;;;;;;42.92;21.30;;;;;;;5.09;100.00;101939.63;4866031;29;405782;-88
2022/02/08 03:19:48;;;;;;;40.30;19.92;;;;;;;5.17;100.00;101933.78;4858661;29;413504;-87
2022/02/08 03:22:14;;;;;;;46.15;21.63;;;;;;;5.18;100.00;101931.03;4833082;29;401277;-88
2022/02/08 03:24:39;;;;;;;53.35;24.52;;;;;;;5.22;100.00;101925.50;4834417;29;458522;-88
2022/02/08 03:27:05;;;;;;;53.28;24.67;;;;;;;5.25;100.00;101925.28;4823067;29;432266;-88
2022/02/08 03:29:30;;;;;;;54.72;26.48;;;;;;;5.26;100.00;101906.53;4660697;29;4013041;-88
2022/02/08 03:31:56;;;;;;;63.55;26.20;;;;;;;5.31;100.00;101916.91;4774061;29;20051;-89
2022/02/08 03:34:21;;;;;;;56.75;28.50;;;;;;;5.35;100.00;101918.38;4816088;29;20046;-87
2022/02/08 03:36:47;;;;;;;54.20;23.95;;;;;;;5.37;100.00;101913.81;4819244;29;20045;-89
2022/02/08 03:39:17;;;;;;;58.13;27.13;;;;;;;5.41;100.00;101915.34;4828058;29;499522;-89
2022/02/08 03:48:36;;;;;;;54.37;28.20;;;;;;;5.51;100.00;101919.06;4426831;29;4011884;-87
2022/02/08 03:52:07;;;;;;;54.28;27.30;;;;;;;5.55;100.00;101925.91;4679155;29;3978780;-87
2022/02/08 03:54:35;;;;;;;56.97;26.88;;;;;;;5.56;100.00;101924.94;4773673;29;28210;-87
2022/02/08 03:57:10;;;;;;;66.28;32.92;;;;;;;5.61;100.00;101920.16;4865351;29;35819;-89
2022/02/08 04:03:02;;;;;;;61.00;28.95;;;;;;;5.69;100.00;101916.09;4819161;29;28753;-88
2022/02/08 04:07:57;;;;;;;55.97;30.65;;;;;;;5.74;100.00;101916.66;4855282;29;437117;-91
2022/02/08 04:10:26;;;;;;;48.43;23.77;;;;;;;5.78;100.00;101928.78;4703746;29;4004010;-90
2022/02/08 04:13:12;;;;;;;65.00;30.33;;;;;;;5.80;100.00;101922.41;4829486;29;445755;-90
2022/02/08 04:18:58;;;;;;;59.58;26.77;;;;;;;5.84;100.00;101909.72;4830426;29;469404;-90
2022/02/08 04:32:43;;;;;;;57.50;30.55;;;;;;;5.95;100.00;101914.34;4816439;29;453127;-91
2022/02/08 04:40:16;;;;;;;61.53;29.55;;;;;;;6.03;100.00;101907.50;5002445;28;20774;-88
2022/02/08 04:50:21;;;;;;;59.20;29.73;;;;;;;6.20;100.00;101916.13;4828334;29;459340;-89
2022/02/08 04:52:48;;;;;;;61.45;29.15;;;;;;;6.23;100.00;101906.09;4824681;29;419546;-88
2022/02/08 04:55:32;;;;;;;61.63;30.30;;;;;;;6.27;100.00;101910.28;4579469;29;4012082;-88
2022/02/08 05:01:14;;;;;;;60.78;28.48;;;;;;;6.34;100.00;101916.00;4817767;29;775819;-88
2022/02/08 05:45:30;;;;;;;50.16;23.86;;;;;;;7.06;100.00;101899.25;4802027;28;2032274;-89
2022/02/08 05:48:00;;;;;;;46.17;23.38;;;;;;;7.08;100.00;101894.63;4901943;28;505392;-88
2022/02/08 05:53:45;;;;;;;;;;;;;;;;;;;;;
2022/02/08 05:56:01;;;;;;;49.60;22.52;;;;;;;7.16;100.00;101892.22;4931423;28;762488;-88
2022/02/08 05:58:26;;;;;;;42.90;20.83;;;;;;;7.20;100.00;101893.72;4915320;28;20035;-88
2022/02/08 06:00:55;;;;;;;40.03;20.58;;;;;;;7.21;100.00;101890.91;4903063;29;435797;-88
2022/02/08 06:03:20;;;;;;;45.60;22.50;;;;;;;7.24;100.00;101898.69;4894566;28;20058;-87
2022/02/08 06:05:46;;;;;;;38.75;21.10;;;;;;;7.26;100.00;101895.94;4863891;29;20057;-88
2022/02/08 06:28:56;;;;;;;34.70;18.27;;;;;;;7.33;100.00;101931.00;4713163;29;3971361;-87
2022/02/08 06:31:21;;;;;;;33.28;16.70;;;;;;;7.34;100.00;101922.91;4808727;29;20058;-88
2022/02/08 06:33:46;;;;;;;36.20;17.05;;;;;;;7.37;100.00;101941.38;4831623;29;20052;-87
2022/02/08 06:36:12;;;;;;;36.40;20.27;;;;;;;7.37;100.00;101925.34;4900066;29;24863;-87
2022/02/08 06:38:37;;;;;;;33.60;18.27;;;;;;;7.39;100.00;101941.22;4732658;29;4005793;-88
2022/02/08 06:41:03;;;;;;;31.42;18.40;;;;;;;7.40;100.00;101922.44;4630712;29;4011026;-87
2022/02/08 06:43:30;;;;;;;29.00;15.50;;;;;;;7.43;100.00;101935.56;4473172;29;4007929;-88
2022/02/08 06:45:56;;;;;;;29.55;14.88;;;;;;;7.44;100.00;101945.25;4623005;29;4005138;-88
2022/02/08 06:48:22;;;;;;;27.75;16.15;;;;;;;7.47;100.00;101954.88;4486980;29;4015321;-88
2022/02/08 06:51:09;;;;;;;28.15;17.65;;;;;;;7.50;100.00;101932.41;4858036;29;35624;-87
2022/02/08 06:57:01;;;;;;;26.65;14.00;;;;;;;7.48;100.00;101943.22;4850516;29;23038;-88
2022/02/08 07:00:59;;;;;;;25.38;14.02;;;;;;;7.47;100.00;101955.72;5023442;27;20412;-87
2022/02/08 07:03:24;;;;;;;31.60;16.38;;;;;;;7.51;100.00;101944.78;4986198;28;20042;-87
2022/02/08 07:05:50;;;;;;;29.23;14.60;;;;;;;7.52;100.00;101957.19;4970440;28;20525;-86
2022/02/08 07:08:15;;;;;;;27.60;17.70;;;;;;;7.53;100.00;101964.22;4981847;28;20049;-86
2022/02/08 07:10:42;;;;;;;25.73;16.08;;;;;;;7.55;100.00;101962.31;4966868;28;20052;-86
2022/02/08 07:13:08;;;;;;;24.05;15.38;;;;;;;7.55;100.00;101964.97;4924874;28;20514;-87
2022/02/08 07:15:36;;;;;;;29.73;15.38;;;;;;;7.55;100.00;101962.31;4855851;29;20108;-87
2022/02/08 07:18:02;;;;;;;22.90;12.13;;;;;;;7.56;100.00;101953.31;4864420;29;20049;-87
2022/02/08 07:21:55;;;;;;;25.83;14.82;;;;;;;7.55;100.00;101951.63;5004303;27;20416;-86
2022/02/08 07:24:20;;;;;;;30.23;16.02;;;;;;;7.56;100.00;101947.97;4931966;28;20560;-87
2022/02/08 07:26:47;;;;;;;29.15;15.07;;;;;;;7.57;100.00;101950.53;4845144;29;21071;-86
2022/02/08 07:29:14;;;;;;;27.83;17.40;;;;;;;7.60;100.00;101944.97;4835585;29;20737;-86
2022/02/08 07:31:49;;;;;;;26.63;15.97;;;;;;;7.63;100.00;101951.91;4823360;29;437791;-86
2022/02/08 07:34:23;;;;;;;27.75;14.25;;;;;;;7.64;100.00;101953.59;4824725;29;635262;-87
2022/02/08 07:37:03;;;;;;;31.23;17.13;;;;;;;7.65;100.00;101949.94;4847808;29;585504;-84
2022/02/08 07:39:40;;;;;;;28.63;17.02;;;;;;;7.66;100.00;101955.19;4837435;29;570147;-85
2022/02/08 07:42:07;;;;;;;27.45;16.40;;;;;;;7.69;100.00;101951.44;4838524;29;593313;-84
2022/02/08 07:44:33;;;;;;;25.33;13.85;;;;;;;7.70;100.00;101974.50;4710600;29;4001269;-87
2022/02/08 07:46:58;;;;;;;24.70;15.57;;;;;;;7.71;100.00;101957.50;4839131;29;593196;-87
2022/02/08 07:49:24;;;;;;;28.55;16.77;;;;;;;7.74;100.00;101945.72;4814897;29;20134;-85
2022/02/08 07:51:50;;;;;;;29.23;17.05;;;;;;;7.74;100.00;101951.06;4826619;29;20767;-85
2022/02/08 07:54:16;;;;;;;29.60;15.95;;;;;;;7.75;100.00;101958.97;4868947;29;20100;-85
2022/02/08 07:56:41;;;;;;;31.23;12.48;;;;;;;7.77;100.00;101951.69;4870421;29;20184;-86
2022/02/08 07:59:07;;;;;;;31.73;16.98;;;;;;;7.80;100.00;101955.97;4854566;29;20045;-85
2022/02/08 08:01:33;;;;;;;30.30;18.42;;;;;;;7.80;100.00;101955.97;4831813;29;20035;-85
2022/02/08 08:04:00;;;;;;;26.45;15.18;;;;;;;7.79;100.00;101960.41;4896753;29;20177;-85
2022/02/08 08:06:26;;;;;;;28.40;16.00;;;;;;;7.81;100.00;101937.13;4886481;29;20063;-85
2022/02/08 08:08:52;;;;;;;32.42;16.60;;;;;;;7.85;100.00;101959.09;4922398;28;20518;-85
2022/02/08 08:11:21;;;;;;;26.70;15.80;;;;;;;7.85;100.00;101959.97;4917830;28;415478;-85
2022/02/08 08:14:02;;;;;;;25.63;15.65;;;;;;;7.86;100.00;101956.31;4890581;28;577510;-85
2022/02/08 08:19:24;;;;;;;30.60;15.50;;;;;;;7.86;100.00;101928.75;4906350;28;423456;-85
2022/02/08 08:21:50;;;;;;;29.48;14.52;;;;;;;7.87;100.00;101941.97;4925479;28;357565;-85
2022/02/08 08:24:16;;;;;;;26.23;15.35;;;;;;;7.89;100.00;101945.41;4931270;28;20119;-85
2022/02/08 08:26:42;;;;;;;26.20;16.77;;;;;;;7.89;100.00;101950.75;4863085;29;20132;-85
2022/02/08 08:29:08;;;;;;;26.08;15.45;;;;;;;7.90;100.00;101941.75;4866036;29;20630;-85
2022/02/08 08:31:33;;;;;;;24.67;13.13;;;;;;;7.88;100.00;101938.34;4875209;28;20045;-85
2022/02/08 08:33:59;;;;;;;25.35;16.58;;;;;;;7.93;100.00;101932.63;4856826;29;20101;-85
2022/02/08 08:36:26;;;;;;;24.00;13.98;;;;;;;7.94;100.00;101936.16;4864839;29;20037;-85
2022/02/08 08:38:54;;;;;;;26.50;14.18;;;;;;;7.97;100.00;101946.59;4853393;29;20056;-86
2022/02/08 08:49:47;;;;;;;26.80;13.35;;;;;;;8.04;100.00;101926.47;4867615;29;20081;-85
2022/02/08 08:52:10;;;;;;;24.58;12.00;;;;;;;8.06;100.00;101935.22;4849671;29;20045;-85
2022/02/08 08:54:36;;;;;;;29.00;14.77;;;;;;;8.09;100.00;101948.34;4848912;29;20596;-85
2022/02/08 08:57:01;;;;;;;28.17;15.77;;;;;;;8.10;100.00;101925.97;4843911;29;20047;-85
2022/02/08 08:59:27;;;;;;;26.20;15.00;;;;;;;8.09;100.00;101933.16;4845401;29;20108;-85
2022/02/08 09:01:53;;;;;;;27.63;13.30;;;;;;;8.11;100.00;101938.38;4723821;29;3686834;-85
2022/02/08 09:04:19;;;;;;;25.90;13.10;;;;;;;8.10;100.00;101948.22;4840359;29;20049;-85
2022/02/08 09:06:47;;;;;;;28.73;14.75;;;;;;;8.10;100.00;101958.91;4827140;29;20051;-85
2022/02/08 09:11:00;;;;;;;24.83;16.10;;;;;;;8.09;100.00;101961.72;5034346;28;20402;-87
2022/02/08 09:13:35;;;;;;;21.70;12.77;;;;;;;8.10;100.00;101963.41;4993706;28;20057;-88
2022/02/08 09:16:08;;;;;;;26.42;14.95;;;;;;;8.11;100.00;101957.06;4995250;28;20057;-87
2022/02/08 09:27:19;;;;;;;21.77;11.57;;;;;;;8.24;100.00;101941.78;4937206;28;20465;-84
2022/02/08 09:34:47;;;;;;;21.30;13.38;;;;;;;8.38;100.00;101942.53;4890334;29;20143;-84
2022/02/08 09:37:15;;;;;;;18.58;11.43;;;;;;;8.38;100.00;101947.88;4879052;29;20044;-85
2022/02/08 09:39:42;;;;;;;22.30;11.23;;;;;;;8.42;100.00;101952.03;4887667;29;20228;-83
2022/02/08 09:42:09;;;;;;;23.73;11.80;;;;;;;8.47;100.00;101940.00;4889220;29;20120;-84
2022/02/08 09:44:36;;;;;;;24.52;12.27;;;;;;;8.56;100.00;101939.25;4865813;29;20041;-85
2022/02/08 09:47:06;;;;;;;20.08;10.93;;;;;;;8.59;100.00;101944.34;4895500;29;20403;-85
2022/02/08 09:49:33;;;;;;;17.63;11.13;;;;;;;8.67;100.00;101941.06;4857881;29;20652;-84
2022/02/08 09:52:00;;;;;;;21.30;12.70;;;;;;;8.73;100.00;101950.44;4872270;29;20842;-85
2022/02/08 09:54:27;;;;;;;20.88;10.70;;;;;;;8.76;100.00;101952.84;4838824;29;20045;-84
2022/02/08 09:56:53;;;;;;;18.92;8.88;;;;;;;8.77;100.00;101958.06;4892706;29;20087;-84
2022/02/08 09:59:18;;;;;;;17.92;10.93;;;;;;;8.78;100.00;101964.28;4896296;29;20232;-84
2022/02/08 10:01:52;;;;;;;16.70;9.35;;;;;;;8.86;100.00;101955.63;4856108;29;20056;-84
2022/02/08 10:04:18;;;;;;;18.63;8.93;;;;;;;8.90;100.00;101973.16;4831532;29;20057;-85
2022/02/08 10:06:43;;;;;;;19.92;9.20;;;;;;;8.96;100.00;101975.34;4842569;29;20046;-84
2022/02/08 10:09:09;;;;;;;14.32;8.63;;;;;;;8.99;100.00;101980.44;4884303;29;20107;-85
2022/02/08 10:11:50;;;;;;;20.00;8.93;;;;;;;9.06;100.00;101981.63;4880014;29;20051;-85
2022/02/08 10:21:00;;;;;;;14.63;7.72;;;;;;;9.12;100.00;102002.56;4922804;28;20082;-87
2022/02/08 10:22:35;;;;;;;14.02;8.57;;;;;;;9.14;100.00;102008.63;4908196;29;20066;-87
2022/02/08 10:25:21;;;;;;;15.73;8.35;;;;;;;9.16;100.00;102003.16;4917572;29;20075;-87
2022/02/08 10:28:29;;;;;;;15.43;6.63;;;;;;;9.15;100.00;102004.13;4913258;28;20046;-87
2022/02/08 10:38:47;;;;;;;16.17;8.05;;;;;;;9.26;100.00;101996.94;4907451;29;20450;-87
2022/02/08 10:41:23;;;;;;;14.80;5.97;;;;;;;9.30;100.00;101997.53;4888277;29;20040;-87
2022/02/08 10:44:06;;;;;;;15.45;6.63;;;;;;;9.30;100.00;101999.34;4904802;29;20055;-87
2022/02/08 10:46:33;;;;;;;11.95;6.30;;;;;;;9.33;100.00;102007.13;4885367;28;20052;-87
2022/02/08 10:49:07;;;;;;;14.90;6.82;;;;;;;9.35;100.00;102010.50;4876039;29;20038;-87
2022/02/08 10:51:44;;;;;;;13.02;6.13;;;;;;;9.38;100.00;102010.25;4943656;28;20074;-88
2022/02/08 10:54:23;;;;;;;10.75;5.05;;;;;;;9.41;100.00;102007.34;4884748;29;20037;-88
2022/02/08 10:56:56;;;;;;;;;;;;;;;9.42;100.00;102011.72;4866873;29;20256;-88
2022/02/08 10:59:28;;;;;;;13.60;4.40;;;;;;;9.36;100.00;101993.47;4852698;29;20483;-87
2022/02/08 11:02:01;;;;;;;13.40;4.93;;;;;;;9.39;100.00;101995.91;4871468;29;20125;-88
2022/02/08 11:04:47;;;;;;;10.20;3.53;;;;;;;9.42;100.00;102001.84;4830236;29;20185;-87
2022/02/08 11:07:28;;;;;;;8.32;3.80;;;;;;;9.45;100.00;102004.28;4843795;29;20178;-87
2022/02/08 11:10:13;;;;;;;10.38;4.20;;;;;;;9.49;100.00;102004.88;4862865;29;20583;-86
2022/02/08 11:13:12;;;;;;;10.88;3.30;;;;;;;9.49;100.00;102023.63;4843100;29;20429;-87
2022/02/08 11:18:43;;;;;;;7.60;3.05;;;;;;;9.52;100.00;102001.94;4824052;29;20121;-86
2022/02/08 11:49:28;;;;;;;8.75;2.35;;;;;;;9.76;100.00;101964.19;4839809;29;20045;-87
2022/02/08 11:52:29;;;;;;;10.75;2.53;;;;;;;9.79;100.00;101957.72;4823958;29;509838;-87
2022/02/08 12:00:41;;;;;;;7.17;2.00;;;;;;;9.82;100.00;101960.13;4800022;29;796871;-87
2022/02/08 12:04:11;;;;;;;;;;;;;;;;;;;;;
2022/02/08 12:06:31;;;;;;;7.15;1.83;;;;;;;9.87;100.00;101982.06;4843123;29;375871;-87
2022/02/08 12:09:05;;;;;;;7.45;2.15;;;;;;;9.85;100.00;101960.72;4805620;29;20046;-87
2022/02/08 12:11:59;;;;;;;7.78;2.08;;;;;;;9.86;100.00;101970.44;4822766;29;20059;-87
2022/02/08 12:31:24;;;;;;;7.40;2.30;;;;;;;9.93;100.00;101960.91;4991037;28;20520;-87
2022/02/08 12:33:59;;;;;;;10.50;2.97;;;;;;;9.94;100.00;101964.44;4994739;28;20500;-87
2022/02/08 12:39:33;;;;;;;8.23;2.80;;;;;;;9.91;100.00;101964.72;5014525;28;20030;-87
2022/02/08 12:48:37;;;;;;;11.32;3.53;;;;;;;9.94;100.00;101972.50;5000358;28;20085;-87
2022/02/08 12:53:48;;;;;;;13.32;4.60;;;;;;;9.96;100.00;101973.22;4985115;28;20166;-85
2022/02/08 13:02:38;;;;;;;5.43;1.85;;;;;;;9.97;100.00;101977.59;4977362;28;20046;-85
2022/02/08 13:05:34;;;;;;;7.22;2.15;;;;;;;9.99;100.00;101978.31;4977743;28;20046;-84
2022/02/08 14:21:37;;;;;;;5.93;1.80;;;;;;;9.98;98.76;101983.78;5013890;28;20056;-84
2022/02/08 14:24:17;;;;;;;5.25;1.52;;;;;;;9.97;97.72;101961.50;5044628;28;20033;-84
2022/02/08 14:29:49;;;;;;;6.68;1.85;;;;;;;9.96;98.80;101981.25;5011513;28;20084;-84
2022/02/08 15:10:22;;;;;;;5.97;1.58;;;;;;;9.72;100.00;102013.66;4997461;28;20698;-84
2022/02/08 15:12:53;;;;;;;7.82;1.73;;;;;;;9.73;100.00;102015.38;4980264;28;20125;-84
2022/02/08 15:15:33;;;;;;;11.93;1.90;;;;;;;9.73;100.00;102012.69;4982106;28;20073;-84
2022/02/08 15:17:58;;;;;;;9.27;2.20;;;;;;;9.74;100.00;101984.06;4998480;28;20049;-84
2022/02/08 15:20:25;;;;;;;6.05;1.77;;;;;;;9.71;100.00;102009.28;5007515;28;20053;-84
2022/02/08 15:22:51;;;;;;;8.40;1.92;;;;;;;9.74;100.00;102010.88;5002726;28;20041;-84
2022/02/08 15:25:17;;;;;;;8.50;2.00;;;;;;;9.73;100.00;102020.75;5017745;28;20042;-84
2022/02/08 15:27:45;;;;;;;7.30;2.15;;;;;;;9.73;100.00;102009.19;5001269;28;20049;-84
2022/02/08 15:30:11;;;;;;;4.28;1.80;;;;;;;9.75;100.00;102012.56;5004874;28;20084;-84
2022/02/08 15:32:38;;;;;;;7.35;2.00;;;;;;;9.74;100.00;102013.56;5003300;28;20037;-85
2022/02/08 15:35:04;;;;;;;5.53;1.80;;;;;;;9.75;100.00;102023.28;5018291;28;20069;-84
2022/02/08 15:37:31;;;;;;;10.23;3.35;;;;;;;9.75;100.00;102012.56;4998905;28;20040;-84
2022/02/08 15:40:03;;;;;;;4.18;1.80;;;;;;;9.72;100.00;102019.03;4997385;28;20497;-84
2022/02/08 15:42:32;;;;;;;15.07;3.20;;;;;;;9.74;100.00;102010.88;5012556;28;20037;-84
2022/02/08 15:45:08;;;;;;;8.02;2.95;;;;;;;9.71;100.00;102012.81;5001871;28;20129;-84
2022/02/08 15:47:33;;;;;;;8.32;2.58;;;;;;;9.70;100.00;102007.59;5014015;28;20073;-84
2022/02/08 15:50:06;;;;;;;6.93;1.88;;;;;;;9.66;100.00;102003.47;5002634;28;20037;-84
2022/02/08 15:55:37;;;;;;;8.88;2.38;;;;;;;9.57;100.00;102021.16;5007083;28;20050;-84
2022/02/08 15:58:20;;;;;;;7.00;2.03;;;;;;;9.52;100.00;102020.69;5030341;28;20053;-84
2022/02/08 16:08:59;;;;;;;15.30;3.13;;;;;;;9.45;100.00;102023.03;5006884;28;20096;-84
2022/02/08 16:14:13;;;;;;;8.57;1.55;;;;;;;9.46;100.00;102022.03;5021967;28;20046;-84
2022/02/08 16:19:35;;;;;;;7.95;1.90;;;;;;;9.48;100.00;102044.22;5016661;28;20030;-84
2022/02/08 16:24:49;;;;;;;9.52;3.35;;;;;;;9.37;100.00;102051.44;5004522;28;20576;-84
2022/02/08 16:53:52;;;;;;;15.63;9.00;;;;;;;8.75;100.00;102032.31;5012809;28;20042;-85
2022/02/08 16:56:23;;;;;;;16.00;9.15;;;;;;;8.73;100.00;102028.03;5004546;28;20061;-85
2022/02/08 16:58:57;;;;;;;18.77;8.98;;;;;;;8.73;100.00;102030.72;5013223;28;20072;-85
2022/02/08 17:01:28;;;;;;;15.57;9.88;;;;;;;8.75;100.00;102034.13;4991382;28;20091;-85
2022/02/08 17:03:54;;;;;;;17.42;9.60;;;;;;;8.73;100.00;102030.72;5001656;28;20061;-85
2022/02/08 17:06:26;;;;;;;14.48;9.55;;;;;;;8.75;100.00;102042.16;4995610;28;20041;-85
2022/02/08 17:09:06;;;;;;;13.25;9.55;;;;;;;8.74;100.00;102052.00;4993428;28;20041;-85
2022/02/08 17:11:39;;;;;;;14.77;9.85;;;;;;;8.77;100.00;102041.03;5000999;28;20042;-86
2022/02/08 17:16:48;;;;;;;25.00;14.10;;;;;;;8.79;100.00;102052.47;5003793;28;20488;-87
2022/02/08 17:34:26;;;;;;;18.00;11.40;;;;;;;8.81;100.00;102055.91;4976330;28;20130;-89
2022/02/08 17:48:36;;;;;;;15.85;9.00;;;;;;;8.91;100.00;102084.59;5044340;28;20508;-91
2022/02/08 17:51:04;;;;;;;18.48;8.25;;;;;;;8.91;100.00;102090.81;5022759;28;20065;-89
2022/02/08 17:53:30;;;;;;;14.40;10.38;;;;;;;8.95;100.00;102091.44;5033690;28;20514;-89
2022/02/08 17:55:57;;;;;;;18.55;10.70;;;;;;;8.94;100.00;102089.72;5043255;28;20050;-93
2022/02/08 17:58:28;;;;;;;14.85;10.40;;;;;;;8.94;100.00;102087.03;5032234;28;20036;-89
2022/02/08 18:00:54;;;;;;;15.60;9.25;;;;;;;8.93;100.00;102088.03;5033064;28;20089;-89
2022/02/08 18:03:20;;;;;;;17.30;11.43;;;;;;;8.95;100.00;102088.75;5023352;28;20116;-91
2022/02/08 18:05:47;;;;;;;19.80;12.88;;;;;;;8.95;100.00;102086.94;5023035;28;20103;-89
2022/02/08 18:08:13;;;;;;;19.77;12.20;;;;;;;8.97;100.00;102089.47;5047966;28;20034;-92
2022/02/08 18:10:48;;;;;;;19.23;11.32;;;;;;;8.98;100.00;102096.53;5046478;28;20075;-91
2022/02/08 18:13:18;;;;;;;17.02;11.25;;;;;;;8.98;100.00;102093.88;5062086;28;20456;-88
2022/02/08 18:15:44;;;;;;;17.13;12.80;;;;;;;8.98;100.00;102085.84;5056721;28;20044;-89
2022/02/08 18:18:21;;;;;;;20.55;13.05;;;;;;;8.98;100.00;102089.38;5058188;28;20093;-89
2022/02/08 18:20:53;;;;;;;19.95;13.40;;;;;;;8.98;100.00;102086.69;5060716;28;20428;-91
2022/02/08 18:53:40;;;;;;;24.50;14.88;;;;;;;9.02;100.00;102092.63;5042021;28;20571;-88
2022/02/08 19:07:43;;;;;;;33.28;23.35;;;;;;;9.05;100.00;102087.03;5034517;28;20084;-86
2022/02/08 19:12:43;;;;;;;22.38;14.98;;;;;;;9.08;100.00;102094.81;5031911;28;20046;-86
2022/02/08 19:17:45;;;;;;;24.97;14.57;;;;;;;9.09;100.00;102075.13;5013788;28;20042;-88
2022/02/08 19:20:15;;;;;;;23.05;15.00;;;;;;;9.10;100.00;102076.81;5050661;28;20037;-88
2022/02/08 19:22:43;;;;;;;25.00;15.40;;;;;;;9.11;100.00;102077.66;5038041;28;20062;-88
2022/02/08 19:25:09;;;;;;;23.33;15.75;;;;;;;9.11;100.00;102089.22;5038522;28;20486;-88
2022/02/08 19:27:37;;;;;;;26.05;16.85;;;;;;;9.11;100.00;102085.69;5033164;28;20470;-88
2022/02/08 19:30:04;;;;;;;24.23;14.87;;;;;;;9.11;100.00;102097.25;5029606;28;20045;-87
2022/02/08 19:32:30;;;;;;;20.50;13.40;;;;;;;9.11;100.00;102096.41;5022794;28;20057;-88
2022/02/08 19:34:59;;;;;;;24.05;14.52;;;;;;;9.10;100.00;102092.88;5020021;28;20089;-88
2022/02/08 19:37:26;;;;;;;22.52;14.73;;;;;;;9.11;100.00;102083.00;5014024;28;20384;-88